sensor_id;sensor_type;location;lat;lon;timestamp;pressure;altitude;pressure_sealevel;temperature;humidity
53647;BME280;39550;52.230;5.194;2022-08-21T00:00:45;101586.84;;;20.00;62.69
53647;BME280;39550;52.230;5.194;2022-08-21T00:03:12;101583.41;;;19.98;62.73
53647;BME280;39550;52.230;5.194;2022-08-21T00:05:41;101575.56;;;19.98;62.59
53647;BME280;39550;52.230;5.194;2022-08-21T00:08:06;101580.84;;;19.95;62.72
53647;BME280;39550;52.230;5.194;2022-08-21T00:10:32;101581.69;;;19.96;62.65
53647;BME280;39550;52.230;5.194;2022-08-21T00:12:57;101580.84;;;19.95;62.54
53647;BME280;39550;52.230;5.194;2022-08-21T00:15:26;101585.19;;;19.95;62.73
53647;BME280;39550;52.230;5.194;2022-08-21T00:17:53;101583.47;;;19.94;62.76
53647;BME280;39550;52.230;5.194;2022-08-21T00:20:19;101575.66;;;19.92;62.64
53647;BME280;39550;52.230;5.194;2022-08-21T00:22:45;101580.88;;;19.92;62.84
53647;BME280;39550;52.230;5.194;2022-08-21T00:25:12;101573.06;;;19.90;62.54
53647;BME280;39550;52.230;5.194;2022-08-21T00:27:38;101567.88;;;19.89;62.71
53647;BME280;39550;52.230;5.194;2022-08-21T00:30:06;101568.75;;;19.88;62.93
53647;BME280;39550;52.230;5.194;2022-08-21T00:32:32;101567.94;;;19.86;62.83
53647;BME280;39550;52.230;5.194;2022-08-21T00:34:57;101566.22;;;19.85;62.79
53647;BME280;39550;52.230;5.194;2022-08-21T00:37:23;101566.22;;;19.85;62.73
53647;BME280;39550;52.230;5.194;2022-08-21T00:39:48;101566.25;;;19.83;62.92
53647;BME280;39550;52.230;5.194;2022-08-21T00:42:14;101566.25;;;19.83;62.77
53647;BME280;39550;52.230;5.194;2022-08-21T00:44:42;101557.59;;;19.78;63.12
53647;BME280;39550;52.230;5.194;2022-08-21T00:47:08;101554.97;;;19.80;62.86
53647;BME280;39550;52.230;5.194;2022-08-21T00:49:33;101554.09;;;19.79;63.05
53647;BME280;39550;52.230;5.194;2022-08-21T00:52:01;101567.16;;;19.79;63.19
53647;BME280;39550;52.230;5.194;2022-08-21T00:54:30;101561.13;;;19.77;62.93
53647;BME280;39550;52.230;5.194;2022-08-21T00:56:59;101562.84;;;19.77;63.15
53647;BME280;39550;52.230;5.194;2022-08-21T00:59:26;101563.72;;;19.76;62.89
53647;BME280;39550;52.230;5.194;2022-08-21T01:01:53;101559.47;;;19.70;63.07
53647;BME280;39550;52.230;5.194;2022-08-21T01:04:20;101565.53;;;19.73;63.20
53647;BME280;39550;52.230;5.194;2022-08-21T01:06:46;101566.41;;;19.72;63.05
53647;BME280;39550;52.230;5.194;2022-08-21T01:09:13;101558.56;;;19.72;63.08
53647;BME280;39550;52.230;5.194;2022-08-21T01:11:40;101562.06;;;19.71;63.26
53647;BME280;39550;52.230;5.194;2022-08-21T01:14:08;101556.06;;;19.66;63.42
53647;BME280;39550;52.230;5.194;2022-08-21T01:16:35;101562.13;;;19.68;63.12
53647;BME280;39550;52.230;5.194;2022-08-21T01:19:01;101566.53;;;19.66;63.22
53647;BME280;39550;52.230;5.194;2022-08-21T01:21:27;101565.69;;;19.64;63.09
53647;BME280;39550;52.230;5.194;2022-08-21T01:23:54;101566.56;;;19.65;63.25
53647;BME280;39550;52.230;5.194;2022-08-21T01:26:24;101563.94;;;19.63;63.50
53647;BME280;39550;52.230;5.194;2022-08-21T01:28:56;101559.63;;;19.62;63.17
53647;BME280;39550;52.230;5.194;2022-08-21T01:31:23;101562.25;;;19.62;63.35
53647;BME280;39550;52.230;5.194;2022-08-21T01:33:49;101562.28;;;19.61;63.42
53647;BME280;39550;52.230;5.194;2022-08-21T01:36:14;101557.97;;;19.58;63.41
53647;BME280;39550;52.230;5.194;2022-08-21T01:38:39;101550.97;;;19.59;63.52
53647;BME280;39550;52.230;5.194;2022-08-21T01:41:05;101557.13;;;19.56;63.38
53647;BME280;39550;52.230;5.194;2022-08-21T01:43:30;101559.72;;;19.56;63.38
53647;BME280;39550;52.230;5.194;2022-08-21T01:45:55;101555.41;;;19.55;63.55
53647;BME280;39550;52.230;5.194;2022-08-21T01:48:21;101552.81;;;19.53;63.16
53647;BME280;39550;52.230;5.194;2022-08-21T01:50:46;101550.28;;;19.49;63.91
53647;BME280;39550;52.230;5.194;2022-08-21T01:53:11;101549.44;;;19.48;63.59
53647;BME280;39550;52.230;5.194;2022-08-21T01:55:38;101551.13;;;19.51;63.68
53647;BME280;39550;52.230;5.194;2022-08-21T01:58:03;101553.75;;;19.51;63.73
53647;BME280;39550;52.230;5.194;2022-08-21T02:00:29;101550.28;;;19.49;63.60
53647;BME280;39550;52.230;5.194;2022-08-21T02:02:54;101544.22;;;19.48;63.66
53647;BME280;39550;52.230;5.194;2022-08-21T02:05:20;101545.94;;;19.48;63.90
53647;BME280;39550;52.230;5.194;2022-08-21T02:07:48;101541.63;;;19.47;63.42
53647;BME280;39550;52.230;5.194;2022-08-21T02:10:19;101545.13;;;19.46;64.27
53647;BME280;39550;52.230;5.194;2022-08-21T02:12:45;101543.38;;;19.45;63.80
53647;BME280;39550;52.230;5.194;2022-08-21T02:15:10;101530.44;;;19.38;64.03
53647;BME280;39550;52.230;5.194;2022-08-21T02:17:41;101546.88;;;19.44;64.07
53647;BME280;39550;52.230;5.194;2022-08-21T02:20:07;101536.50;;;19.40;64.19
53647;BME280;39550;52.230;5.194;2022-08-21T02:22:33;101543.44;;;19.42;64.25
53647;BME280;39550;52.230;5.194;2022-08-21T02:24:58;101538.28;;;19.38;64.15
53647;BME280;39550;52.230;5.194;2022-08-21T02:27:25;101529.59;;;19.36;64.04
53647;BME280;39550;52.230;5.194;2022-08-21T02:29:50;101524.38;;;19.36;63.95
53647;BME280;39550;52.230;5.194;2022-08-21T02:32:16;101532.22;;;19.36;64.24
53647;BME280;39550;52.230;5.194;2022-08-21T02:34:41;101528.75;;;19.36;64.48
53647;BME280;39550;52.230;5.194;2022-08-21T02:37:06;101527.03;;;19.33;64.51
53647;BME280;39550;52.230;5.194;2022-08-21T02:39:31;101519.19;;;19.33;64.14
53647;BME280;39550;52.230;5.194;2022-08-21T02:41:57;101525.31;;;19.32;64.38
53647;BME280;39550;52.230;5.194;2022-08-21T02:44:22;101522.69;;;19.32;64.35
53647;BME280;39550;52.230;5.194;2022-08-21T02:46:47;101523.56;;;19.31;64.36
53647;BME280;39550;52.230;5.194;2022-08-21T02:49:13;101514.13;;;19.24;64.20
53647;BME280;39550;52.230;5.194;2022-08-21T02:51:38;101524.50;;;19.30;64.55
53647;BME280;39550;52.230;5.194;2022-08-21T02:54:03;101515.78;;;19.28;64.31
53647;BME280;39550;52.230;5.194;2022-08-21T02:56:28;101524.53;;;19.27;64.23
53647;BME280;39550;52.230;5.194;2022-08-21T02:58:54;101520.19;;;19.26;64.53
53647;BME280;39550;52.230;5.194;2022-08-21T03:01:19;101518.47;;;19.25;64.32
53647;BME280;39550;52.230;5.194;2022-08-21T03:03:46;101519.34;;;19.24;64.12
53647;BME280;39550;52.230;5.194;2022-08-21T03:06:15;101514.16;;;19.22;64.15
53647;BME280;39550;52.230;5.194;2022-08-21T03:08:42;101510.72;;;19.19;64.14
53647;BME280;39550;52.230;5.194;2022-08-21T03:11:09;101506.38;;;19.19;64.81
53647;BME280;39550;52.230;5.194;2022-08-21T03:13:35;101505.50;;;19.19;64.30
53647;BME280;39550;52.230;5.194;2022-08-21T03:16:00;101509.88;;;19.18;64.40
53647;BME280;39550;52.230;5.194;2022-08-21T03:18:26;101507.28;;;19.17;64.31
53647;BME280;39550;52.230;5.194;2022-08-21T03:20:51;101504.69;;;19.17;64.22
53647;BME280;39550;52.230;5.194;2022-08-21T03:23:17;101499.47;;;19.15;64.40
53647;BME280;39550;52.230;5.194;2022-08-21T03:25:44;101503.81;;;19.15;64.09
53647;BME280;39550;52.230;5.194;2022-08-21T03:28:20;101504.75;;;19.14;64.28
53647;BME280;39550;52.230;5.194;2022-08-21T03:30:48;101505.63;;;19.13;64.21
53647;BME280;39550;52.230;5.194;2022-08-21T03:33:14;101505.63;;;19.13;64.17
53647;BME280;39550;52.230;5.194;2022-08-21T03:35:41;101502.19;;;19.09;64.25
53647;BME280;39550;52.230;5.194;2022-08-21T03:38:07;101491.81;;;19.04;64.11
53647;BME280;39550;52.230;5.194;2022-08-21T03:40:33;101501.31;;;19.10;64.29
53647;BME280;39550;52.230;5.194;2022-08-21T03:42:58;101497.88;;;19.08;63.91
53647;BME280;39550;52.230;5.194;2022-08-21T03:45:24;101498.72;;;19.09;64.24
53647;BME280;39550;52.230;5.194;2022-08-21T03:47:56;101500.50;;;19.07;64.25
53647;BME280;39550;52.230;5.194;2022-08-21T03:50:23;101484.06;;;19.01;63.87
53647;BME280;39550;52.230;5.194;2022-08-21T03:52:49;101490.97;;;19.04;64.16
53647;BME280;39550;52.230;5.194;2022-08-21T03:55:14;101491.00;;;19.02;64.19
53647;BME280;39550;52.230;5.194;2022-08-21T03:57:40;101488.41;;;19.02;64.05
53647;BME280;39550;52.230;5.194;2022-08-21T04:00:06;101490.16;;;19.00;64.06
53647;BME280;39550;52.230;5.194;2022-08-21T04:02:35;101483.19;;;18.99;63.97
53647;BME280;39550;52.230;5.194;2022-08-21T04:05:00;101484.97;;;18.99;64.26
53647;BME280;39550;52.230;5.194;2022-08-21T04:07:26;101481.50;;;18.98;64.01
53647;BME280;39550;52.230;5.194;2022-08-21T04:09:51;101483.25;;;18.96;64.15
53647;BME280;39550;52.230;5.194;2022-08-21T04:12:16;101481.50;;;18.97;64.02
53647;BME280;39550;52.230;5.194;2022-08-21T04:14:42;101488.47;;;18.96;64.41
53647;BME280;39550;52.230;5.194;2022-08-21T04:17:07;101491.97;;;18.95;64.13
53647;BME280;39550;52.230;5.194;2022-08-21T04:19:32;101485.06;;;18.94;64.45
53647;BME280;39550;52.230;5.194;2022-08-21T04:21:58;101493.75;;;18.93;64.07
53647;BME280;39550;52.230;5.194;2022-08-21T04:24:23;101494.63;;;18.94;64.06
53647;BME280;39550;52.230;5.194;2022-08-21T04:26:48;101496.38;;;18.93;64.21
53647;BME280;39550;52.230;5.194;2022-08-21T04:29:13;101495.53;;;18.91;64.16
53647;BME280;39550;52.230;5.194;2022-08-21T04:31:39;101493.81;;;18.90;64.17
53647;BME280;39550;52.230;5.194;2022-08-21T04:34:04;101488.66;;;18.84;64.16
53647;BME280;39550;52.230;5.194;2022-08-21T04:36:31;101491.25;;;18.88;64.23
53647;BME280;39550;52.230;5.194;2022-08-21T04:38:56;101501.69;;;18.88;64.08
53647;BME280;39550;52.230;5.194;2022-08-21T04:41:22;101500.81;;;18.88;64.16
53647;BME280;39550;52.230;5.194;2022-08-21T04:43:47;101509.47;;;18.87;64.30
53647;BME280;39550;52.230;5.194;2022-08-21T04:46:12;101513.00;;;18.86;64.29
53647;BME280;39550;52.230;5.194;2022-08-21T04:48:38;101506.06;;;18.85;64.13
53647;BME280;39550;52.230;5.194;2022-08-21T04:51:10;101512.16;;;18.84;63.91
53647;BME280;39550;52.230;5.194;2022-08-21T04:53:40;101514.75;;;18.84;64.25
53647;BME280;39550;52.230;5.194;2022-08-21T04:56:18;101513.91;;;18.83;64.14
53647;BME280;39550;52.230;5.194;2022-08-21T04:58:44;101516.56;;;18.82;64.09
53647;BME280;39550;52.230;5.194;2022-08-21T05:01:13;101519.19;;;18.80;64.30
53647;BME280;39550;52.230;5.194;2022-08-21T05:03:40;101513.09;;;18.80;64.26
53647;BME280;39550;52.230;5.194;2022-08-21T05:06:08;101518.31;;;18.80;64.28
53647;BME280;39550;52.230;5.194;2022-08-21T05:08:36;101516.56;;;18.79;64.33
53647;BME280;39550;52.230;5.194;2022-08-21T05:11:03;101515.72;;;18.78;64.39
53647;BME280;39550;52.230;5.194;2022-08-21T05:13:28;101516.56;;;18.79;64.30
53647;BME280;39550;52.230;5.194;2022-08-21T05:15:54;101525.31;;;18.78;63.56
53647;BME280;39550;52.230;5.194;2022-08-21T05:18:20;101521.84;;;18.76;64.42
53647;BME280;39550;52.230;5.194;2022-08-21T05:20:46;101514.91;;;18.75;64.50
53647;BME280;39550;52.230;5.194;2022-08-21T05:23:12;101520.13;;;18.75;64.41
53647;BME280;39550;52.230;5.194;2022-08-21T05:25:39;101520.13;;;18.75;64.33
53647;BME280;39550;52.230;5.194;2022-08-21T05:28:04;101518.41;;;18.74;64.29
53647;BME280;39550;52.230;5.194;2022-08-21T05:30:29;101521.03;;;18.74;64.07
53647;BME280;39550;52.230;5.194;2022-08-21T05:32:57;101527.97;;;18.73;64.52
53647;BME280;39550;52.230;5.194;2022-08-21T05:35:22;101523.63;;;18.74;64.59
53647;BME280;39550;52.230;5.194;2022-08-21T05:37:48;101523.63;;;18.74;64.56
53647;BME280;39550;52.230;5.194;2022-08-21T05:40:13;101522.75;;;18.73;64.41
53647;BME280;39550;52.230;5.194;2022-08-21T05:42:39;101530.56;;;18.75;64.27
53647;BME280;39550;52.230;5.194;2022-08-21T05:45:04;101528.81;;;18.77;64.44
53647;BME280;39550;52.230;5.194;2022-08-21T05:47:30;101521.03;;;18.74;64.17
53647;BME280;39550;52.230;5.194;2022-08-21T05:49:55;101527.97;;;18.76;64.20
53647;BME280;39550;52.230;5.194;2022-08-21T05:52:21;101526.19;;;18.77;64.25
53647;BME280;39550;52.230;5.194;2022-08-21T05:54:47;101515.84;;;18.69;63.94
53647;BME280;39550;52.230;5.194;2022-08-21T05:57:12;101529.66;;;18.77;64.32
53647;BME280;39550;52.230;5.194;2022-08-21T05:59:37;101526.25;;;18.74;64.36
53647;BME280;39550;52.230;5.194;2022-08-21T06:02:03;101521.78;;;18.79;64.55
53647;BME280;39550;52.230;5.194;2022-08-21T06:04:29;101515.72;;;18.78;64.05
53647;BME280;39550;52.230;5.194;2022-08-21T06:06:54;101522.69;;;18.78;64.31
53647;BME280;39550;52.230;5.194;2022-08-21T06:09:19;101517.47;;;18.78;64.31
53647;BME280;39550;52.230;5.194;2022-08-21T06:11:45;101514.00;;;18.77;63.99
53647;BME280;39550;52.230;5.194;2022-08-21T06:14:14;101516.59;;;18.77;64.31
53647;BME280;39550;52.230;5.194;2022-08-21T06:16:39;101514.88;;;18.78;64.36
53647;BME280;39550;52.230;5.194;2022-08-21T06:19:05;101517.47;;;18.78;64.51
53647;BME280;39550;52.230;5.194;2022-08-21T06:21:30;101514.91;;;18.76;64.28
53647;BME280;39550;52.230;5.194;2022-08-21T06:23:56;101521.84;;;18.76;64.44
53647;BME280;39550;52.230;5.194;2022-08-21T06:26:21;101514.00;;;18.76;64.57
53647;BME280;39550;52.230;5.194;2022-08-21T06:28:47;101518.38;;;18.77;64.77
53647;BME280;39550;52.230;5.194;2022-08-21T06:31:15;101513.16;;;18.75;64.45
53647;BME280;39550;52.230;5.194;2022-08-21T06:33:41;101516.56;;;18.79;64.39
53647;BME280;39550;52.230;5.194;2022-08-21T06:36:07;101514.00;;;18.77;64.57
53647;BME280;39550;52.230;5.194;2022-08-21T06:38:32;101522.69;;;18.78;64.59
53647;BME280;39550;52.230;5.194;2022-08-21T06:40:57;101520.94;;;18.78;64.43
53647;BME280;39550;52.230;5.194;2022-08-21T06:43:22;101520.09;;;18.78;64.59
53647;BME280;39550;52.230;5.194;2022-08-21T06:45:48;101516.56;;;18.79;64.63
53647;BME280;39550;52.230;5.194;2022-08-21T06:48:13;101511.34;;;18.79;64.41
53647;BME280;39550;52.230;5.194;2022-08-21T06:50:38;101505.38;;;18.70;64.86
53647;BME280;39550;52.230;5.194;2022-08-21T06:53:07;101512.22;;;18.79;64.68
53647;BME280;39550;52.230;5.194;2022-08-21T06:55:33;101513.09;;;18.80;64.55
53647;BME280;39550;52.230;5.194;2022-08-21T06:57:59;101513.09;;;18.80;64.68
53647;BME280;39550;52.230;5.194;2022-08-21T07:00:25;101516.56;;;18.79;64.75
53647;BME280;39550;52.230;5.194;2022-08-21T07:02:50;101513.97;;;18.79;64.65
53647;BME280;39550;52.230;5.194;2022-08-21T07:05:17;101521.78;;;18.79;64.61
53647;BME280;39550;52.230;5.194;2022-08-21T07:07:42;101516.56;;;18.79;64.63
53647;BME280;39550;52.230;5.194;2022-08-21T07:10:08;101509.66;;;18.78;64.72
53647;BME280;39550;52.230;5.194;2022-08-21T07:12:34;101510.53;;;18.77;65.03
53647;BME280;39550;52.230;5.194;2022-08-21T07:14:59;101515.72;;;18.78;64.69
53647;BME280;39550;52.230;5.194;2022-08-21T07:17:24;101513.13;;;18.78;64.87
53647;BME280;39550;52.230;5.194;2022-08-21T07:19:50;101509.66;;;18.78;64.97
53647;BME280;39550;52.230;5.194;2022-08-21T07:22:18;101511.34;;;18.79;64.61
53647;BME280;39550;52.230;5.194;2022-08-21T07:24:45;101514.81;;;18.81;64.78
53647;BME280;39550;52.230;5.194;2022-08-21T07:27:11;101519.19;;;18.80;65.18
53647;BME280;39550;52.230;5.194;2022-08-21T07:29:36;101512.22;;;18.79;64.80
53647;BME280;39550;52.230;5.194;2022-08-21T07:32:02;101515.66;;;18.81;64.90
53647;BME280;39550;52.230;5.194;2022-08-21T07:34:27;101514.81;;;18.81;64.58
53647;BME280;39550;52.230;5.194;2022-08-21T07:36:52;101520.03;;;18.81;65.08
53647;BME280;39550;52.230;5.194;2022-08-21T07:39:18;101516.56;;;18.82;64.96
53647;BME280;39550;52.230;5.194;2022-08-21T07:41:43;101524.34;;;18.83;65.08
53647;BME280;39550;52.230;5.194;2022-08-21T07:44:08;101526.09;;;18.83;64.98
53647;BME280;39550;52.230;5.194;2022-08-21T07:46:34;101520.91;;;18.80;65.26
53647;BME280;39550;52.230;5.194;2022-08-21T07:48:59;101530.44;;;18.84;65.18
53647;BME280;39550;52.230;5.194;2022-08-21T07:51:26;101534.78;;;18.85;65.06
53647;BME280;39550;52.230;5.194;2022-08-21T07:53:54;101533.91;;;18.86;65.10
53647;BME280;39550;52.230;5.194;2022-08-21T07:56:20;101534.75;;;18.86;65.09
53647;BME280;39550;52.230;5.194;2022-08-21T07:58:45;101526.91;;;18.86;65.06
53647;BME280;39550;52.230;5.194;2022-08-21T08:01:11;101526.91;;;18.88;65.06
53647;BME280;39550;52.230;5.194;2022-08-21T08:03:37;101519.09;;;18.88;64.99
53647;BME280;39550;52.230;5.194;2022-08-21T08:06:04;101511.28;;;18.85;64.75
53647;BME280;39550;52.230;5.194;2022-08-21T08:08:30;101514.72;;;18.90;64.84
53647;BME280;39550;52.230;5.194;2022-08-21T08:10:56;101506.84;;;18.92;65.04
53647;BME280;39550;52.230;5.194;2022-08-21T08:13:23;101514.66;;;18.93;65.17
53647;BME280;39550;52.230;5.194;2022-08-21T08:15:49;101516.38;;;18.94;64.98
53647;BME280;39550;52.230;5.194;2022-08-21T08:18:15;101515.44;;;18.97;64.82
53647;BME280;39550;52.230;5.194;2022-08-21T08:20:40;101521.56;;;18.97;64.92
53647;BME280;39550;52.230;5.194;2022-08-21T08:23:07;101517.19;;;18.98;64.82
53647;BME280;39550;52.230;5.194;2022-08-21T08:25:32;101512.78;;;19.01;64.97
53647;BME280;39550;52.230;5.194;2022-08-21T08:27:57;101519.75;;;19.02;65.05
53647;BME280;39550;52.230;5.194;2022-08-21T08:30:22;101510.97;;;19.07;65.19
53647;BME280;39550;52.230;5.194;2022-08-21T08:32:49;101516.19;;;19.07;64.83
53647;BME280;39550;52.230;5.194;2022-08-21T08:35:15;101517.88;;;19.11;64.94
53647;BME280;39550;52.230;5.194;2022-08-21T08:37:41;101516.06;;;19.13;65.04
53647;BME280;39550;52.230;5.194;2022-08-21T08:40:19;101509.06;;;19.15;64.99
53647;BME280;39550;52.230;5.194;2022-08-21T08:42:46;101520.25;;;19.21;64.88
53647;BME280;39550;52.230;5.194;2022-08-21T08:45:16;101508.03;;;19.25;64.75
53647;BME280;39550;52.230;5.194;2022-08-21T08:48:01;101514.97;;;19.26;64.93
53647;BME280;39550;52.230;5.194;2022-08-21T08:50:54;101497.63;;;19.22;64.97
53647;BME280;39550;52.230;5.194;2022-08-21T08:53:28;101510.41;;;19.37;64.47
53647;BME280;39550;52.230;5.194;2022-08-21T08:55:55;101504.28;;;19.40;64.66
53647;BME280;39550;52.230;5.194;2022-08-21T08:58:28;101506.00;;;19.39;64.68
53647;BME280;39550;52.230;5.194;2022-08-21T09:00:56;101510.28;;;19.44;64.52
53647;BME280;39550;52.230;5.194;2022-08-21T09:03:25;101499.84;;;19.44;64.67
53647;BME280;39550;52.230;5.194;2022-08-21T09:06:01;101504.31;;;19.37;64.81
53647;BME280;39550;52.230;5.194;2022-08-21T09:14:49;101492.84;;;19.46;64.80
53647;BME280;39550;52.230;5.194;2022-08-21T09:17:17;101493.72;;;19.45;64.88
53647;BME280;39550;52.230;5.194;2022-08-21T09:22:48;101506.78;;;19.45;65.02
53647;BME280;39550;52.230;5.194;2022-08-21T09:25:22;101502.28;;;19.53;64.66
53647;BME280;39550;52.230;5.194;2022-08-21T09:27:49;101506.56;;;19.57;64.53
53647;BME280;39550;52.230;5.194;2022-08-21T09:30:15;101508.28;;;19.58;65.02
53647;BME280;39550;52.230;5.194;2022-08-21T09:32:41;101505.56;;;19.64;64.61
53647;BME280;39550;52.230;5.194;2022-08-21T09:38:06;101507.28;;;19.65;64.75
53647;BME280;39550;52.230;5.194;2022-08-21T09:43:02;101509.13;;;19.60;64.77
53647;BME280;39550;52.230;5.194;2022-08-21T09:45:28;101505.59;;;19.63;64.98
53647;BME280;39550;52.230;5.194;2022-08-21T09:47:54;101506.41;;;19.66;64.90
53647;BME280;39550;52.230;5.194;2022-08-21T09:50:23;101485.59;;;19.60;64.93
53647;BME280;39550;52.230;5.194;2022-08-21T09:52:53;101494.16;;;19.67;64.79
53647;BME280;39550;52.230;5.194;2022-08-21T09:55:33;101498.34;;;19.76;64.38
53647;BME280;39550;52.230;5.194;2022-08-21T09:58:18;101495.69;;;19.79;64.50
53647;BME280;39550;52.230;5.194;2022-08-21T10:00:45;101491.34;;;19.78;64.54
53647;BME280;39550;52.230;5.194;2022-08-21T10:03:21;101486.31;;;19.67;64.77
53647;BME280;39550;52.230;5.194;2022-08-21T10:05:57;101498.34;;;19.76;64.67
53647;BME280;39550;52.230;5.194;2022-08-21T10:08:25;101482.63;;;19.79;64.58
53647;BME280;39550;52.230;5.194;2022-08-21T10:10:54;101505.94;;;19.91;64.44
53647;BME280;39550;52.230;5.194;2022-08-21T10:13:21;101497.22;;;19.90;64.50
53647;BME280;39550;52.230;5.194;2022-08-21T10:18:28;101486.72;;;19.92;64.74
53647;BME280;39550;52.230;5.194;2022-08-21T10:21:07;101484.00;;;19.98;64.34
53647;BME280;39550;52.230;5.194;2022-08-21T10:24:06;101486.47;;;20.04;64.25
53647;BME280;39550;52.230;5.194;2022-08-21T10:40:33;101485.97;;;19.85;64.99
53647;BME280;39550;52.230;5.194;2022-08-21T10:45:57;101488.25;;;20.02;64.32
53647;BME280;39550;52.230;5.194;2022-08-21T10:48:36;101469.25;;;19.94;64.43
53647;BME280;39550;52.230;5.194;2022-08-21T10:51:13;101475.28;;;19.96;64.83
53647;BME280;39550;52.230;5.194;2022-08-21T10:53:58;101485.03;;;19.91;65.04
53647;BME280;39550;52.230;5.194;2022-08-21T10:56:30;101483.34;;;19.87;65.04
53647;BME280;39550;52.230;5.194;2022-08-21T10:59:05;101487.72;;;19.86;64.99
53647;BME280;39550;52.230;5.194;2022-08-21T11:04:26;101485.03;;;19.91;64.84
53647;BME280;39550;52.230;5.194;2022-08-21T11:07:00;101481.47;;;19.92;64.82
53647;BME280;39550;52.230;5.194;2022-08-21T11:09:27;101483.16;;;19.96;64.83
53647;BME280;39550;52.230;5.194;2022-08-21T11:12:00;101484.94;;;19.94;64.81
53647;BME280;39550;52.230;5.194;2022-08-21T11:14:58;101483.91;;;20.01;64.94
53647;BME280;39550;52.230;5.194;2022-08-21T11:20:36;101475.06;;;20.07;64.83
53647;BME280;39550;52.230;5.194;2022-08-21T11:23:13;101480.34;;;20.05;64.79
53647;BME280;39550;52.230;5.194;2022-08-21T11:25:42;101483.78;;;20.07;64.60
53647;BME280;39550;52.230;5.194;2022-08-21T11:28:19;101482.81;;;20.12;64.60
53647;BME280;39550;52.230;5.194;2022-08-21T11:31:05;101484.47;;;20.16;64.15
53647;BME280;39550;52.230;5.194;2022-08-21T11:33:47;101480.88;;;20.20;64.29
53647;BME280;39550;52.230;5.194;2022-08-21T11:36:26;101476.50;;;20.22;64.24
53647;BME280;39550;52.230;5.194;2022-08-21T11:41:43;101471.88;;;20.33;63.85
53647;BME280;39550;52.230;5.194;2022-08-21T11:44:37;101482.41;;;20.30;63.93
53647;BME280;39550;52.230;5.194;2022-08-21T11:50:14;101487.09;;;20.16;64.31
53647;BME280;39550;52.230;5.194;2022-08-21T11:52:48;101490.41;;;20.24;64.47
53647;BME280;39550;52.230;5.194;2022-08-21T11:55:19;101491.09;;;20.32;63.96
53647;BME280;39550;52.230;5.194;2022-08-21T11:57:55;101492.00;;;20.31;64.36
53647;BME280;39550;52.230;5.194;2022-08-21T12:00:30;101489.22;;;20.37;63.73
53647;BME280;39550;52.230;5.194;2022-08-21T12:03:07;101494.59;;;20.33;63.89
53647;BME280;39550;52.230;5.194;2022-08-21T12:05:42;101489.22;;;20.37;63.80
53647;BME280;39550;52.230;5.194;2022-08-21T12:10:39;101492.69;;;20.39;63.96
53647;BME280;39550;52.230;5.194;2022-08-21T12:13:08;101490.28;;;20.30;64.11
53647;BME280;39550;52.230;5.194;2022-08-21T12:15:34;101487.72;;;20.27;64.10
53647;BME280;39550;52.230;5.194;2022-08-21T12:18:01;101483.88;;;20.44;63.45
53647;BME280;39550;52.230;5.194;2022-08-21T12:20:56;101486.81;;;20.67;62.83
53647;BME280;39550;52.230;5.194;2022-08-21T12:23:32;101492.47;;;20.86;62.22
53647;BME280;39550;52.230;5.194;2022-08-21T12:26:27;101485.97;;;21.01;62.13
53647;BME280;39550;52.230;5.194;2022-08-21T12:34:37;101487.25;;;20.85;62.45
53647;BME280;39550;52.230;5.194;2022-08-21T12:37:15;101474.47;;;21.07;61.42
53647;BME280;39550;52.230;5.194;2022-08-21T12:39:44;101481.94;;;21.24;61.02
53647;BME280;39550;52.230;5.194;2022-08-21T12:42:17;101485.16;;;21.32;61.13
53647;BME280;39550;52.230;5.194;2022-08-21T12:44:56;101491.28;;;21.33;60.81
53647;BME280;39550;52.230;5.194;2022-08-21T12:47:51;101489.94;;;21.18;61.25
53647;BME280;39550;52.230;5.194;2022-08-21T12:50:29;101485.69;;;21.47;60.83
53647;BME280;39550;52.230;5.194;2022-08-21T12:53:10;101494.03;;;21.61;60.36
53647;BME280;39550;52.230;5.194;2022-08-21T12:55:41;101501.06;;;21.26;61.35
53647;BME280;39550;52.230;5.194;2022-08-21T12:58:17;101499.44;;;21.22;61.74
53647;BME280;39550;52.230;5.194;2022-08-21T13:00:49;101499.53;;;21.19;61.73
53647;BME280;39550;52.230;5.194;2022-08-21T13:03:15;101498.88;;;21.43;60.88
53647;BME280;39550;52.230;5.194;2022-08-21T13:05:41;101501.56;;;21.07;61.74
53647;BME280;39550;52.230;5.194;2022-08-21T13:08:10;101499.28;;;21.28;61.49
53647;BME280;39550;52.230;5.194;2022-08-21T13:10:37;101497.78;;;21.18;61.70
53647;BME280;39550;52.230;5.194;2022-08-21T13:13:06;101498.63;;;21.53;60.49
53647;BME280;39550;52.230;5.194;2022-08-21T13:15:33;101507.09;;;21.64;60.55
53647;BME280;39550;52.230;5.194;2022-08-21T13:18:01;101504.72;;;21.85;59.85
53647;BME280;39550;52.230;5.194;2022-08-21T13:20:31;101504.84;;;21.49;60.36
53647;BME280;39550;52.230;5.194;2022-08-21T13:22:57;101510.94;;;21.16;61.62
53647;BME280;39550;52.230;5.194;2022-08-21T13:25:28;101502.19;;;21.17;61.98
53647;BME280;39550;52.230;5.194;2022-08-21T13:28:05;101499.88;;;22.02;59.36
53647;BME280;39550;52.230;5.194;2022-08-21T13:30:31;101498.50;;;22.49;58.11
53647;BME280;39550;52.230;5.194;2022-08-21T13:33:00;101495.66;;;22.55;57.62
53647;BME280;39550;52.230;5.194;2022-08-21T13:38:11;101500.47;;;21.49;61.10
53647;BME280;39550;52.230;5.194;2022-08-21T13:41:24;101500.97;;;21.64;60.30
53647;BME280;39550;52.230;5.194;2022-08-21T13:43:34;101503.88;;;21.53;60.50
53647;BME280;39550;52.230;5.194;2022-08-21T13:46:02;101499.09;;;21.69;60.51
53647;BME280;39550;52.230;5.194;2022-08-21T13:48:33;101505.66;;;21.51;61.21
53647;BME280;39550;52.230;5.194;2022-08-21T13:50:59;101505.56;;;21.55;61.04
53647;BME280;39550;52.230;5.194;2022-08-21T13:53:45;101514.06;;;21.31;61.78